Time;durP1;ratioP1;P1;durP2;ratioP2;P2;SDS_P1;SDS_P2;PMS_P1;PMS_P2;Temp;Humidity;BMP_temperature;BMP_pressure;BME280_temperature;BME280_humidity;BME280_pressure;Samples;Min_cycle;Max_cycle;Signal;HPM_P1;HPM_P2
2022/07/29 00:02:10;;;;;;;3.47;2.80;;;;;;;22.32;36.78;98766.19;5091733;28;40769;-78
2022/07/29 00:04:38;;;;;;;5.07;2.57;;;;;;;22.32;36.62;98770.75;5092688;28;41795;-76
2022/07/29 00:07:07;;;;;;;3.10;2.70;;;;;;;22.29;36.83;98768.41;5091128;28;42741;-77
2022/07/29 00:09:35;;;;;;;3.60;2.93;;;;;;;22.27;36.85;98763.16;5091944;28;42990;-77
2022/07/29 00:12:03;;;;;;;4.00;2.60;;;;;;;22.22;36.56;98760.16;5092540;28;40967;-79
2022/07/29 00:14:31;;;;;;;2.83;2.30;;;;;;;21.99;36.78;98732.22;5091385;28;40589;-76
2022/07/29 00:16:58;;;;;;;4.87;2.67;;;;;;;22.18;36.57;98775.00;5091248;28;42693;-77
2022/07/29 00:19:26;;;;;;;5.53;2.73;;;;;;;22.10;36.60;98762.38;5092657;28;42001;-77
2022/07/29 00:21:54;;;;;;;3.30;2.53;;;;;;;22.12;36.69;98773.00;5092420;28;39971;-77
2022/07/29 00:24:23;;;;;;;4.50;3.10;;;;;;;22.06;36.79;98776.38;5091362;28;41671;-76
2022/07/29 00:26:51;;;;;;;3.83;2.60;;;;;;;22.01;36.98;98768.78;5091080;28;43636;-77
2022/07/29 00:29:18;;;;;;;3.00;2.30;;;;;;;21.95;36.71;98771.28;5090671;28;41469;-77
2022/07/29 00:31:46;;;;;;;3.87;2.43;;;;;;;21.89;36.86;98764.72;5074089;28;39509;-78
2022/07/29 00:36:55;;;;;;;3.53;2.97;;;;;;;21.78;37.30;98757.81;5073708;28;41676;-77
2022/07/29 00:39:25;;;;;;;5.10;2.90;;;;;;;21.72;37.35;98766.59;5073956;28;40521;-78
2022/07/29 00:41:52;;;;;;;3.77;3.00;;;;;;;21.69;37.22;98758.00;5074195;28;38859;-77
2022/07/29 00:44:20;;;;;;;3.97;2.93;;;;;;;21.59;37.35;98752.78;5091793;28;42759;-77
2022/07/29 00:46:48;;;;;;;3.40;2.97;;;;;;;21.61;37.15;98750.75;5091976;28;44136;-77
2022/07/29 00:49:16;;;;;;;3.70;2.80;;;;;;;21.58;37.05;98752.94;5073794;28;41560;-76
2022/07/29 00:51:43;;;;;;;5.03;2.60;;;;;;;21.55;37.22;98746.03;5073767;28;38570;-77
2022/07/29 00:54:11;;;;;;;4.53;2.63;;;;;;;21.52;37.65;98746.34;5073732;28;40626;-78
2022/07/29 00:56:40;;;;;;;3.20;2.80;;;;;;;21.45;37.79;98734.56;5091142;28;42917;-77
2022/07/29 00:59:08;;;;;;;4.30;2.83;;;;;;;21.47;37.59;98754.13;5073279;28;41076;-77
2022/07/29 01:01:35;;;;;;;3.10;2.70;;;;;;;21.43;37.69;98759.00;5091019;28;40963;-78
2022/07/29 01:04:03;;;;;;;4.70;2.70;;;;;;;21.37;37.72;98761.53;5090290;28;40023;-77
2022/07/29 01:06:31;;;;;;;3.10;2.80;;;;;;;21.34;37.59;98754.59;5090456;28;43765;-78
2022/07/29 01:08:59;;;;;;;2.57;2.20;;;;;;;21.31;37.88;98764.88;5089805;28;42479;-77
2022/07/29 01:11:27;;;;;;;3.73;2.57;;;;;;;21.25;37.93;98750.22;5073683;28;40213;-77
2022/07/29 01:13:58;;;;;;;3.50;2.47;;;;;;;21.23;37.71;98748.69;5090313;28;40426;-77
2022/07/29 01:16:32;;;;;;;4.17;2.73;;;;;;;21.20;37.94;98740.94;5091825;28;42421;-77
2022/07/29 01:19:08;;;;;;;5.97;2.70;;;;;;;21.17;38.00;98744.78;5073227;28;41562;-77
2022/07/29 01:21:53;;;;;;;3.80;2.30;;;;;;;21.16;37.89;98745.78;5073871;28;39043;-76
2022/07/29 01:24:56;;;;;;;5.93;2.27;;;;;;;21.17;38.09;98742.09;5090245;28;41768;-77
2022/07/29 01:27:39;;;;;;;3.10;2.80;;;;;;;21.16;38.23;98740.38;5059706;28;43425;-77
2022/07/29 01:30:09;;;;;;;3.63;2.50;;;;;;;21.13;38.22;98738.06;5090126;28;42384;-77
2022/07/29 01:32:38;;;;;;;2.60;2.30;;;;;;;21.12;38.12;98737.22;5073380;28;38922;-77
2022/07/29 01:35:12;;;;;;;3.60;2.80;;;;;;;21.03;38.10;98719.34;5091557;28;41515;-78
2022/07/29 01:37:46;;;;;;;3.30;2.60;;;;;;;21.09;38.36;98734.84;5073097;28;42970;-78
2022/07/29 01:40:20;;;;;;;2.60;2.17;;;;;;;21.08;38.34;98732.31;5090219;28;42117;-76
2022/07/29 01:42:52;;;;;;;4.03;2.53;;;;;;;21.07;38.06;98736.84;5088878;28;39774;-76
2022/07/29 01:45:29;;;;;;;3.27;2.20;;;;;;;21.04;38.08;98731.78;5089889;28;40982;-77
2022/07/29 01:48:04;;;;;;;3.63;2.60;;;;;;;21.00;38.50;98730.44;5075992;28;42967;-76
2022/07/29 01:50:36;;;;;;;3.40;2.43;;;;;;;20.98;38.58;98727.06;5090448;28;42057;-78
2022/07/29 01:53:08;;;;;;;4.67;2.23;;;;;;;20.81;38.41;98703.81;5093700;28;40951;-77
2022/07/29 01:55:39;;;;;;;3.30;2.37;;;;;;;20.89;38.77;98725.38;5090670;28;41725;-77
2022/07/29 01:58:09;;;;;;;3.10;2.50;;;;;;;20.84;38.56;98722.31;5093202;28;44898;-78
2022/07/29 02:00:41;;;;;;;4.23;2.37;;;;;;;20.81;38.95;98719.97;5093546;28;42238;-77
2022/07/29 02:03:11;;;;;;;2.50;2.20;;;;;;;20.75;39.01;98716.09;5091885;28;39970;-76
2022/07/29 02:05:43;;;;;;;2.90;2.43;;;;;;;20.72;38.96;98720.94;5093623;28;42748;-78
2022/07/29 02:08:13;;;;;;;3.17;2.77;;;;;;;20.70;39.13;98717.56;5094238;28;43614;-76
2022/07/29 02:10:42;;;;;;;2.57;2.23;;;;;;;20.61;39.25;98700.56;5076307;28;41139;-78
2022/07/29 02:13:12;;;;;;;2.67;2.47;;;;;;;20.68;39.35;98719.56;5075760;28;39067;-77
2022/07/29 02:15:44;;;;;;;2.80;2.50;;;;;;;20.61;39.22;98718.56;5093412;28;41582;-78
2022/07/29 02:18:16;;;;;;;3.17;2.30;;;;;;;20.65;38.91;98719.88;5093190;28;42797;-77
2022/07/29 02:20:46;;;;;;;5.30;2.33;;;;;;;20.64;39.24;98718.25;5091393;28;43160;-77
2022/07/29 02:23:19;;;;;;;4.83;2.23;;;;;;;20.63;39.42;98711.16;5093163;28;40786;-77
2022/07/29 02:25:50;;;;;;;3.63;2.30;;;;;;;20.61;39.54;98713.16;5092993;28;40573;-77
2022/07/29 02:28:19;;;;;;;4.37;2.47;;;;;;;20.58;39.16;98713.50;5094121;28;42203;-76
2022/07/29 02:30:52;;;;;;;2.83;2.20;;;;;;;20.58;39.82;98708.94;5076083;28;41628;-78
2022/07/29 02:33:21;;;;;;;4.57;2.30;;;;;;;20.56;39.45;98710.13;5075929;28;38956;-78
2022/07/29 02:35:50;;;;;;;3.03;2.17;;;;;;;20.53;39.74;98710.44;5094023;28;41886;-77
2022/07/29 02:41:11;;;;;;;3.53;2.23;;;;;;;20.53;39.69;98710.44;5089584;28;42151;-78
2022/07/29 02:43:40;;;;;;;4.93;2.07;;;;;;;20.50;39.52;98711.63;5092606;28;39752;-78
2022/07/29 02:46:20;;;;;;;4.40;2.20;;;;;;;20.44;39.58;98713.09;5092764;28;41669;-77
2022/07/29 02:48:56;;;;;;;2.20;1.80;;;;;;;20.49;39.84;98714.47;5091927;28;42846;-76
2022/07/29 02:51:30;;;;;;;2.60;2.17;;;;;;;20.47;39.59;98722.69;5090801;28;42353;-78
2022/07/29 02:54:01;;;;;;;3.33;2.43;;;;;;;20.44;39.40;98723.84;5091954;28;39998;-77
2022/07/29 02:56:34;;;;;;;2.40;2.00;;;;;;;20.20;39.83;98683.38;5089642;28;41640;-78
2022/07/29 02:59:06;;;;;;;3.10;2.10;;;;;;;20.43;39.92;98719.47;5091555;28;43769;-78
2022/07/29 03:01:39;;;;;;;4.33;2.20;;;;;;;20.42;39.81;98720.47;5090547;28;42371;-75
2022/07/29 03:04:09;;;;;;;2.33;1.83;;;;;;;20.43;39.66;98713.25;5093517;28;40765;-77
2022/07/29 03:06:39;;;;;;;3.90;2.40;;;;;;;20.40;39.97;98709.03;5092213;28;42682;-78
2022/07/29 03:09:09;;;;;;;3.50;2.20;;;;;;;20.42;39.64;98711.56;5074532;28;43208;-78
2022/07/29 03:11:37;;;;;;;3.00;1.90;;;;;;;20.42;39.55;98709.72;5092559;28;42670;-77
2022/07/29 03:14:06;;;;;;;2.53;1.90;;;;;;;20.44;39.82;98713.09;5092263;28;40327;-78
2022/07/29 03:16:37;;;;;;;6.20;2.07;;;;;;;20.44;39.74;98713.09;5091641;28;41709;-76
2022/07/29 03:19:06;;;;;;;2.67;2.20;;;;;;;20.40;39.90;98711.72;5091934;28;42766;-77
2022/07/29 03:21:35;;;;;;;3.40;2.20;;;;;;;20.42;39.94;98707.03;5092118;28;41118;-76
2022/07/29 03:24:03;;;;;;;4.07;2.10;;;;;;;20.40;40.02;98700.97;5074829;28;39819;-77
2022/07/29 03:26:31;;;;;;;2.47;2.27;;;;;;;20.35;39.83;98702.44;5092089;28;40420;-78
2022/07/29 03:28:58;;;;;;;5.07;2.40;;;;;;;20.32;40.10;98703.59;5091982;28;42515;-76
2022/07/29 03:31:26;;;;;;;3.97;2.20;;;;;;;20.17;40.06;98691.75;5091715;28;40820;-77
2022/07/29 03:33:55;;;;;;;2.60;2.07;;;;;;;20.23;40.05;98704.56;5074843;28;40263;-78
2022/07/29 03:36:23;;;;;;;4.10;2.13;;;;;;;20.16;40.16;98708.88;5091901;28;40789;-77
2022/07/29 03:38:51;;;;;;;3.67;2.00;;;;;;;20.09;40.16;98697.94;5074954;28;43127;-76
2022/07/29 03:41:20;;;;;;;2.93;1.80;;;;;;;20.12;40.12;98702.16;5091960;28;42390;-77
2022/07/29 03:43:50;;;;;;;3.00;1.80;;;;;;;20.14;40.26;98708.22;5074868;28;40400;-77
2022/07/29 03:46:20;;;;;;;3.00;2.10;;;;;;;20.13;40.33;98701.16;5092001;28;41829;-77
2022/07/29 03:48:51;;;;;;;3.37;2.10;;;;;;;20.18;40.30;98701.50;5074436;28;42589;-77
2022/07/29 03:51:21;;;;;;;2.87;2.10;;;;;;;20.20;40.34;98710.25;5091910;28;42196;-78
2022/07/29 03:53:49;;;;;;;2.97;1.93;;;;;;;20.24;39.99;98710.78;5091593;28;42302;-77
2022/07/29 03:56:22;;;;;;;2.67;1.97;;;;;;;20.15;40.23;98693.78;5074697;28;40558;-77
2022/07/29 03:58:51;;;;;;;3.47;2.17;;;;;;;20.13;40.38;98690.41;5092216;28;42941;-78
2022/07/29 04:01:20;;;;;;;4.97;2.77;;;;;;;20.25;40.03;98718.72;5091731;28;42015;-77
2022/07/29 04:03:49;;;;;;;3.57;2.20;;;;;;;20.25;40.30;98718.72;5074180;28;39682;-77
2022/07/29 04:06:16;;;;;;;2.53;2.30;;;;;;;20.19;40.44;98703.19;5091393;28;41749;-78
2022/07/29 04:08:46;;;;;;;2.60;2.00;;;;;;;20.25;40.70;98713.31;5090582;28;43672;-76
2022/07/29 04:11:14;;;;;;;2.60;1.70;;;;;;;20.25;40.48;98709.78;5092383;28;42324;-77
2022/07/29 04:13:42;;;;;;;2.67;2.20;;;;;;;20.25;40.43;98707.94;5091030;28;40481;-77
2022/07/29 04:16:10;;;;;;;2.87;1.70;;;;;;;20.25;41.26;98707.09;5091631;28;40826;-76
2022/07/29 04:18:38;;;;;;;3.67;2.27;;;;;;;20.15;40.79;98688.41;5091497;28;42742;-76
2022/07/29 04:21:06;;;;;;;2.00;1.70;;;;;;;20.22;40.80;98708.25;5073862;28;42193;-77
2022/07/29 04:23:33;;;;;;;2.23;2.00;;;;;;;20.12;40.98;98696.78;5090782;28;39586;-77
2022/07/29 04:26:02;;;;;;;3.57;2.60;;;;;;;20.21;41.32;98711.94;5092532;28;41944;-77
2022/07/29 04:28:30;;;;;;;3.20;2.17;;;;;;;20.19;41.33;98708.56;5090912;28;43464;-78
2022/07/29 04:30:58;;;;;;;4.27;1.87;;;;;;;20.17;41.24;98710.56;5074252;28;41167;-77
2022/07/29 04:33:26;;;;;;;2.57;1.80;;;;;;;20.13;41.19;98703.84;5074314;28;39873;-77
2022/07/29 04:35:54;;;;;;;3.00;1.80;;;;;;;20.15;41.02;98711.75;5090854;28;42057;-78
2022/07/29 04:38:22;;;;;;;3.00;2.03;;;;;;;20.13;41.28;98709.22;5090537;28;42135;-77
2022/07/29 04:40:50;;;;;;;3.33;2.07;;;;;;;20.14;40.82;98715.44;5090956;28;42421;-77
2022/07/29 04:43:19;;;;;;;1.63;1.53;;;;;;;20.04;41.18;98694.88;5090588;28;39145;-77
2022/07/29 04:45:47;;;;;;;2.47;1.80;;;;;;;20.12;40.87;98706.69;5091953;28;41947;-78
2022/07/29 04:48:15;;;;;;;3.03;1.80;;;;;;;20.16;40.92;98714.25;5090408;28;41774;-77
2022/07/29 04:50:44;;;;;;;2.40;2.03;;;;;;;20.17;40.82;98709.72;5090817;28;42209;-78
2022/07/29 04:53:12;;;;;;;2.10;1.70;;;;;;;20.20;41.12;98709.41;5090522;28;38712;-78
2022/07/29 04:55:40;;;;;;;3.03;1.90;;;;;;;20.22;41.12;98708.25;5092161;28;42466;-78
2022/07/29 04:58:08;;;;;;;2.97;1.70;;;;;;;20.18;40.94;98701.50;5073387;28;43798;-77
2022/07/29 05:00:37;;;;;;;4.47;2.10;;;;;;;20.13;40.95;98687.72;5090975;28;42157;-79
2022/07/29 05:03:05;;;;;;;2.57;1.87;;;;;;;20.28;41.45;98712.97;5091720;28;40987;-76
2022/07/29 05:05:33;;;;;;;4.57;1.90;;;;;;;20.29;41.32;98714.66;5090817;28;41754;-77
2022/07/29 05:08:00;;;;;;;2.33;1.60;;;;;;;20.32;41.21;98714.34;5090334;28;43080;-76
2022/07/29 05:10:29;;;;;;;2.83;1.93;;;;;;;20.36;41.21;98721.16;5091524;28;42302;-76
2022/07/29 05:12:56;;;;;;;2.47;1.93;;;;;;;20.40;40.97;98717.09;5073477;28;39204;-76
2022/07/29 05:15:24;;;;;;;3.60;1.90;;;;;;;20.43;41.25;98711.41;5073558;28;40476;-76
2022/07/29 05:17:53;;;;;;;3.30;1.73;;;;;;;20.49;40.77;98718.00;5089752;28;43473;-77
2022/07/29 05:20:25;;;;;;;5.17;1.70;;;;;;;20.52;40.88;98720.38;5090250;28;43222;-78
2022/07/29 05:22:53;;;;;;;2.30;1.70;;;;;;;20.58;41.12;98713.50;5091177;28;40212;-78
2022/07/29 05:25:21;;;;;;;2.73;2.20;;;;;;;20.75;40.79;98715.25;5095565;28;42449;-78
2022/07/29 05:27:49;;;;;;;3.13;2.00;;;;;;;20.95;40.72;98721.16;5076565;28;41541;-77
2022/07/29 05:30:17;;;;;;;2.53;1.93;;;;;;;21.15;40.49;98722.53;5094467;28;43277;-77
2022/07/29 05:32:45;;;;;;;2.30;1.80;;;;;;;21.38;40.58;98728.19;5078087;28;40335;-76
2022/07/29 05:35:15;;;;;;;2.13;1.93;;;;;;;21.55;40.38;98729.84;5094630;28;41723;-78
2022/07/29 05:37:43;;;;;;;3.00;2.17;;;;;;;21.75;39.99;98728.53;5095461;28;42690;-78
2022/07/29 05:40:11;;;;;;;2.60;1.90;;;;;;;21.94;39.91;98729.16;5094756;28;42403;-78
2022/07/29 05:42:39;;;;;;;4.43;2.73;;;;;;;22.08;39.65;98731.19;5094686;28;40070;-77
2022/07/29 05:45:07;;;;;;;2.20;2.00;;;;;;;22.05;39.52;98709.94;5094819;28;42863;-77
2022/07/29 05:47:35;;;;;;;5.87;2.17;;;;;;;22.33;39.65;98730.13;5094579;28;42862;-77
2022/07/29 05:50:04;;;;;;;2.87;2.20;;;;;;;22.39;39.19;98724.00;5077295;28;40880;-77
2022/07/29 05:52:33;;;;;;;2.37;1.83;;;;;;;22.46;39.25;98732.28;5076225;28;38908;-77
2022/07/29 05:55:04;;;;;;;2.10;1.70;;;;;;;22.55;39.16;98729.34;5093511;28;43550;-76
2022/07/29 05:57:32;;;;;;;2.50;2.00;;;;;;;22.66;39.35;98732.69;5093298;28;42886;-77
2022/07/29 06:00:00;;;;;;;2.20;2.00;;;;;;;22.74;39.00;98725.41;5093106;28;43203;-76
2022/07/29 06:02:27;;;;;;;2.33;2.13;;;;;;;22.81;38.64;98728.25;5094713;28;40938;-77
2022/07/29 06:04:55;;;;;;;3.07;1.80;;;;;;;22.90;39.04;98722.63;5093022;28;42069;-78
2022/07/29 06:07:23;;;;;;;2.37;1.90;;;;;;;23.05;38.55;98730.81;5075961;28;45193;-78
2022/07/29 06:09:52;;;;;;;3.43;2.60;;;;;;;23.19;38.53;98735.47;5092731;28;42202;-77
2022/07/29 06:12:20;;;;;;;3.33;1.97;;;;;;;23.41;38.31;98741.91;5093315;28;40730;-78
2022/07/29 06:14:48;;;;;;;2.37;1.97;;;;;;;23.72;37.71;98752.69;5076385;28;40610;-78
2022/07/29 06:17:17;;;;;;;3.93;2.00;;;;;;;23.82;37.67;98737.03;5092736;28;44724;-79
2022/07/29 06:19:45;;;;;;;2.73;2.00;;;;;;;24.04;37.50;98737.16;5094345;28;43220;-76
2022/07/29 06:22:13;;;;;;;3.23;1.80;;;;;;;24.31;37.08;98771.75;5092873;28;38948;-76
2022/07/29 06:24:43;;;;;;;2.77;2.37;;;;;;;24.37;36.95;98765.59;5093023;28;41221;-76
2022/07/29 06:27:13;;;;;;;2.27;1.93;;;;;;;24.41;36.42;98766.91;5075890;28;43471;-75
2022/07/29 06:29:41;;;;;;;2.93;1.87;;;;;;;24.48;36.62;98767.03;5076355;28;41259;-77
2022/07/29 06:32:09;;;;;;;2.23;2.03;;;;;;;24.62;36.39;98753.44;5092303;28;39878;-77
2022/07/29 06:34:36;;;;;;;4.83;2.10;;;;;;;24.88;36.19;98752.97;5092929;28;40682;-77
2022/07/29 06:37:08;;;;;;;3.17;2.07;;;;;;;24.95;36.32;98736.84;5075622;28;43958;-77
2022/07/29 06:39:36;;;;;;;2.87;1.97;;;;;;;25.10;36.13;98750.34;5090965;28;43218;-76
2022/07/29 06:42:05;;;;;;;2.07;1.87;;;;;;;25.16;35.98;98758.53;5092411;28;38957;-77
2022/07/29 06:44:35;;;;;;;2.83;1.90;;;;;;;25.27;35.90;98752.63;5075582;28;40751;-76
2022/07/29 06:47:03;;;;;;;2.93;1.90;;;;;;;25.50;36.03;98751.59;5075538;28;41731;-77
2022/07/29 06:49:31;;;;;;;3.27;2.10;;;;;;;25.65;35.07;98744.28;5092140;28;41330;-77
2022/07/29 06:51:58;;;;;;;2.10;1.70;;;;;;;25.96;35.25;98758.34;5093754;28;40947;-78
2022/07/29 06:54:26;;;;;;;4.00;2.20;;;;;;;26.20;34.60;98756.22;5092407;28;41022;-77
2022/07/29 06:56:54;;;;;;;3.57;2.00;;;;;;;26.37;34.66;98761.16;5092489;28;42995;-77
2022/07/29 06:59:22;;;;;;;1.90;1.70;;;;;;;26.60;34.56;98766.31;5092628;28;42400;-78
2022/07/29 07:01:51;;;;;;;2.17;1.87;;;;;;;26.89;34.24;98769.81;5092759;28;41027;-78
2022/07/29 07:04:19;;;;;;;2.90;1.90;;;;;;;27.25;33.54;98767.66;5092456;28;42605;-78
2022/07/29 07:06:47;;;;;;;4.57;1.80;;;;;;;27.57;32.55;98771.53;5092232;28;42813;-77
2022/07/29 07:09:15;;;;;;;3.87;2.20;;;;;;;27.78;32.85;98771.38;5091618;28;41071;-77
2022/07/29 07:11:43;;;;;;;4.00;2.50;;;;;;;28.00;32.26;98788.34;5093845;28;40920;-76
2022/07/29 07:14:10;;;;;;;2.40;2.07;;;;;;;28.32;31.94;98778.50;5074742;28;40589;-76
2022/07/29 07:16:38;;;;;;;2.50;2.10;;;;;;;28.52;31.83;98745.78;5092524;28;42806;-76
2022/07/29 07:19:07;;;;;;;3.00;2.13;;;;;;;29.08;30.93;98783.38;5093213;28;43239;-76
2022/07/29 07:21:35;;;;;;;2.27;1.90;;;;;;;29.37;30.07;98790.16;5093633;28;40034;-77
2022/07/29 07:24:03;;;;;;;3.20;1.60;;;;;;;29.62;30.04;98797.41;5092987;28;42778;-78
2022/07/29 07:26:31;;;;;;;1.67;1.53;;;;;;;29.98;29.57;98798.66;5092350;28;43451;-77
2022/07/29 07:29:00;;;;;;;2.33;2.00;;;;;;;30.48;28.86;98791.28;5074899;28;42427;-77
2022/07/29 07:31:27;;;;;;;2.23;1.80;;;;;;;30.93;28.21;98800.06;5092039;28;39706;-76
2022/07/29 07:33:55;;;;;;;3.77;2.30;;;;;;;31.13;28.19;98794.41;5093211;28;42231;-77
2022/07/29 07:36:25;;;;;;;3.20;1.93;;;;;;;31.12;27.96;98791.91;5091879;28;42787;-76
2022/07/29 07:38:53;;;;;;;2.20;2.00;;;;;;;31.04;27.71;98802.03;5091539;28;41081;-77
2022/07/29 07:41:21;;;;;;;4.90;2.10;;;;;;;31.07;27.84;98784.34;5091634;28;39877;-78
2022/07/29 07:43:49;;;;;;;3.90;2.30;;;;;;;31.08;27.55;98791.47;5092130;28;41712;-77
2022/07/29 07:46:17;;;;;;;3.13;2.20;;;;;;;31.03;27.82;98792.16;5074507;28;43016;-77
2022/07/29 07:48:45;;;;;;;1.80;1.70;;;;;;;31.13;27.88;98779.88;5091542;28;41587;-77
2022/07/29 07:51:13;;;;;;;3.53;2.40;;;;;;;31.54;27.43;98790.88;5091392;28;40071;-77
2022/07/29 07:53:44;;;;;;;3.50;2.17;;;;;;;32.14;27.19;98793.59;5093182;28;41811;-76
2022/07/29 07:56:12;;;;;;;2.97;1.83;;;;;;;32.61;26.67;98796.38;5091556;28;42407;-77
2022/07/29 07:58:40;;;;;;;3.97;2.10;;;;;;;32.91;26.04;98786.09;5092824;28;42160;-77
2022/07/29 08:01:08;;;;;;;3.93;2.10;;;;;;;32.90;26.03;98803.63;5091401;28;39006;-76
2022/07/29 08:03:36;;;;;;;3.60;2.27;;;;;;;32.61;26.24;98790.91;5091339;28;40640;-78
2022/07/29 08:06:03;;;;;;;2.37;2.17;;;;;;;32.53;26.27;98793.97;5090874;28;43668;-76
2022/07/29 08:08:31;;;;;;;2.60;2.00;;;;;;;32.61;26.52;98796.38;5090771;28;43337;-77
2022/07/29 08:11:01;;;;;;;3.00;2.10;;;;;;;32.91;26.31;98797.09;5091211;28;38725;-77
2022/07/29 08:13:30;;;;;;;2.30;2.03;;;;;;;33.33;25.72;98805.13;5091598;28;42192;-75
2022/07/29 08:15:59;;;;;;;2.10;1.90;;;;;;;33.20;25.82;98806.22;5091094;28;43663;-77
2022/07/29 08:18:27;;;;;;;2.43;2.23;;;;;;;33.10;26.11;98806.84;5074325;28;42649;-77
2022/07/29 08:20:56;;;;;;;3.47;2.07;;;;;;;33.45;25.74;98803.19;5074075;28;40369;-77
2022/07/29 08:23:24;;;;;;;2.83;2.17;;;;;;;33.88;25.34;98803.47;5091210;28;40530;-77
2022/07/29 08:25:52;;;;;;;2.80;2.20;;;;;;;35.04;24.31;98814.69;5092189;28;42839;-76
2022/07/29 08:28:22;;;;;;;2.73;2.53;;;;;;;35.87;23.45;98816.25;5074107;28;41452;-75
2022/07/29 08:30:50;;;;;;;2.30;2.20;;;;;;;36.68;23.01;98811.44;5091134;28;40909;-77
2022/07/29 08:33:18;;;;;;;2.67;2.27;;;;;;;36.79;22.67;98817.06;5091150;28;42983;-76
2022/07/29 08:35:46;;;;;;;2.13;1.93;;;;;;;36.45;22.98;98809.06;5091026;28;43744;-76
2022/07/29 08:38:15;;;;;;;2.83;2.23;;;;;;;36.10;23.31;98814.28;5074121;28;41104;-76
2022/07/29 08:40:42;;;;;;;2.30;2.10;;;;;;;36.05;23.15;98814.22;5092070;28;40900;-75
2022/07/29 08:43:10;;;;;;;2.47;2.13;;;;;;;36.60;22.71;98820.19;5073755;28;40820;-76
2022/07/29 08:45:45;;;;;;;2.30;2.10;;;;;;;37.47;22.04;98831.75;5090623;28;43515;-76
2022/07/29 08:48:14;;;;;;;2.47;2.27;;;;;;;37.58;21.76;98830.72;5088808;28;43216;-78
2022/07/29 08:50:43;;;;;;;2.30;2.10;;;;;;;37.00;22.16;98827.94;5090334;28;38996;-77
2022/07/29 08:53:14;;;;;;;3.60;2.73;;;;;;;37.18;22.27;98834.97;5090445;28;43238;-77
2022/07/29 08:55:43;;;;;;;3.07;2.33;;;;;;;38.01;21.49;98824.75;5090420;28;43609;-78
2022/07/29 08:58:12;;;;;;;3.20;2.23;;;;;;;38.76;20.42;98842.50;5090593;28;42357;-77
2022/07/29 09:00:44;;;;;;;2.60;2.03;;;;;;;38.72;20.92;98830.31;5073590;28;39972;-76
2022/07/29 09:03:15;;;;;;;2.53;2.17;;;;;;;37.95;21.05;98825.84;5090656;28;41678;-77
2022/07/29 09:05:43;;;;;;;2.63;2.43;;;;;;;37.21;21.87;98828.91;5089439;28;42792;-77
2022/07/29 09:08:12;;;;;;;3.13;2.37;;;;;;;36.51;22.29;98824.56;5090338;28;42230;-78
2022/07/29 09:10:40;;;;;;;3.67;2.60;;;;;;;35.81;22.91;98822.81;5090448;28;38985;-77
2022/07/29 09:13:08;;;;;;;2.57;2.20;;;;;;;35.13;23.65;98804.88;5073527;28;41909;-77
2022/07/29 09:15:36;;;;;;;2.73;2.47;;;;;;;34.79;23.90;98815.16;5073246;28;42010;-76
2022/07/29 09:18:05;;;;;;;2.33;2.07;;;;;;;34.56;24.60;98818.09;5090228;28;41221;-76
2022/07/29 09:23:15;;;;;;;2.83;2.63;;;;;;;34.77;24.37;98800.81;5089723;28;41901;-76
2022/07/29 09:25:43;;;;;;;2.60;2.40;;;;;;;35.46;24.01;98809.47;5073137;28;41662;-76
2022/07/29 09:28:13;;;;;;;3.10;2.13;;;;;;;35.67;23.70;98810.50;5091557;28;42269;-77
2022/07/29 09:30:51;;;;;;;2.30;2.10;;;;;;;35.66;23.37;98803.34;5073011;28;38488;-78
2022/07/29 09:33:22;;;;;;;2.63;2.30;;;;;;;35.63;23.59;98809.34;5088429;28;41818;-75
2022/07/29 09:36:00;;;;;;;2.20;2.00;;;;;;;35.39;24.00;98816.25;5073110;28;42417;-77
2022/07/29 09:38:28;;;;;;;2.13;2.00;;;;;;;35.06;23.87;98815.28;5088281;28;42335;-77
2022/07/29 09:40:59;;;;;;;2.80;2.30;;;;;;;34.61;24.44;98809.94;5091096;28;40268;-77
2022/07/29 09:43:27;;;;;;;2.10;2.00;;;;;;;34.25;25.12;98797.47;5089879;28;41813;-77
2022/07/29 09:45:55;;;;;;;1.90;1.80;;;;;;;33.92;25.23;98783.75;5089894;28;43788;-76
2022/07/29 09:48:26;;;;;;;2.30;2.10;;;;;;;33.63;26.91;98778.25;5090077;28;42139;-77
2022/07/29 09:50:54;;;;;;;3.30;2.20;;;;;;;33.36;27.65;98788.19;5088771;28;39974;-75
2022/07/29 09:53:32;;;;;;;2.47;2.00;;;;;;;32.98;30.30;98770.38;5091118;28;42550;-76
2022/07/29 09:56:00;;;;;;;3.07;2.07;;;;;;;32.62;31.37;98763.25;5089724;28;43409;-76
2022/07/29 09:58:28;;;;;;;5.80;2.17;;;;;;;32.36;31.48;98761.00;5089659;28;41207;-76
2022/07/29 10:00:56;;;;;;;2.00;1.63;;;;;;;32.16;32.05;98741.28;5090819;28;40267;-74
2022/07/29 10:03:26;;;;;;;2.30;2.10;;;;;;;32.27;31.49;98751.47;5089547;28;40980;-74
2022/07/29 10:06:08;;;;;;;2.40;1.90;;;;;;;32.57;30.79;98754.06;5072195;28;41850;-73
2022/07/29 10:08:36;;;;;;;2.30;2.00;;;;;;;33.01;30.69;98738.88;5074324;28;41257;-74
2022/07/29 10:11:15;;;;;;;2.10;2.00;;;;;;;33.95;28.44;98761.25;5093655;28;40873;-74
2022/07/29 10:13:44;;;;;;;2.50;2.10;;;;;;;34.14;27.47;98773.66;5075917;28;40585;-74
2022/07/29 10:16:12;;;;;;;2.33;2.10;;;;;;;34.18;27.38;98772.09;5094000;28;42495;-75
2022/07/29 10:18:43;;;;;;;2.60;2.07;;;;;;;34.45;26.18;98781.34;5092846;28;41251;-74
2022/07/29 10:21:11;;;;;;;2.00;1.80;;;;;;;34.37;26.44;98783.72;5092645;28;41267;-75
2022/07/29 10:23:40;;;;;;;4.13;2.30;;;;;;;34.12;26.92;98775.84;5094271;28;41639;-74
2022/07/29 10:26:08;;;;;;;2.40;1.70;;;;;;;33.94;27.23;98779.66;5092617;28;42823;-74
2022/07/29 10:28:36;;;;;;;2.53;1.90;;;;;;;33.85;27.44;98770.19;5093978;28;42460;-74
2022/07/29 10:31:07;;;;;;;3.13;2.10;;;;;;;33.80;27.79;98784.66;5092424;28;41015;-75
2022/07/29 10:33:51;;;;;;;5.70;1.97;;;;;;;33.89;27.84;98777.66;5092791;28;41802;-73
2022/07/29 10:36:36;;;;;;;2.50;2.00;;;;;;;33.99;27.82;98774.28;5093831;28;42908;-73
2022/07/29 10:39:12;;;;;;;4.40;2.30;;;;;;;33.73;27.78;98778.47;5092412;28;41159;-74
2022/07/29 10:42:03;;;;;;;2.90;2.40;;;;;;;33.42;28.05;98782.53;5091111;28;40986;-74
2022/07/29 10:44:31;;;;;;;3.30;2.00;;;;;;;33.25;27.90;98781.66;5090200;28;42699;-73
2022/07/29 10:47:00;;;;;;;2.23;2.10;;;;;;;33.14;28.38;98775.06;5092687;28;42717;-74
2022/07/29 10:49:29;;;;;;;2.37;2.10;;;;;;;33.10;28.41;98779.41;5092206;28;43362;-74
2022/07/29 10:52:03;;;;;;;2.20;2.00;;;;;;;33.04;28.56;98769.38;5093432;28;39792;-74
2022/07/29 10:54:50;;;;;;;5.50;2.33;;;;;;;33.10;28.90;98776.66;5089964;28;42117;-75
2022/07/29 10:57:21;;;;;;;2.30;2.10;;;;;;;33.22;28.88;98770.28;5089433;28;42675;-73
2022/07/29 10:59:50;;;;;;;2.33;2.13;;;;;;;33.43;28.86;98772.38;5091651;28;42357;-74
2022/07/29 11:02:43;;;;;;;2.30;2.10;;;;;;;33.74;28.08;98774.63;5093554;28;41874;-74
2022/07/29 11:05:16;;;;;;;2.13;1.90;;;;;;;33.77;27.75;98774.16;5075126;28;40777;-73
2022/07/29 11:08:18;;;;;;;2.03;1.90;;;;;;;34.09;27.74;98771.69;5089370;28;42849;-74
2022/07/29 11:10:47;;;;;;;2.43;2.20;;;;;;;34.31;27.17;98769.03;5092027;28;43274;-74
2022/07/29 11:13:47;;;;;;;2.30;2.10;;;;;;;34.59;27.81;98760.66;5092161;28;40016;-74
2022/07/29 11:16:16;;;;;;;3.70;2.33;;;;;;;35.39;26.04;98761.16;5093478;28;42591;-74
2022/07/29 11:19:21;;;;;;;2.53;2.20;;;;;;;36.18;25.50;98777.94;5092194;28;42590;-73
2022/07/29 11:21:51;;;;;;;2.50;2.30;;;;;;;37.21;24.06;98787.50;5074909;28;42314;-73
2022/07/29 11:24:23;;;;;;;2.60;2.40;;;;;;;37.44;23.46;98796.41;5091556;28;40269;-74
2022/07/29 11:27:15;;;;;;;2.10;2.00;;;;;;;37.75;23.39;98781.56;5074784;28;41142;-75
2022/07/29 11:29:54;;;;;;;2.37;2.20;;;;;;;37.89;22.74;98788.22;5089494;28;43726;-73
2022/07/29 11:32:24;;;;;;;2.67;2.47;;;;;;;38.34;22.48;98790.19;5088938;28;42746;-73
2022/07/29 11:35:14;;;;;;;2.33;2.10;;;;;;;38.61;22.15;98789.06;5074527;28;40033;-74
2022/07/29 11:37:42;;;;;;;2.90;2.53;;;;;;;39.06;22.06;98780.69;5091700;28;42502;-74
2022/07/29 11:40:19;;;;;;;1.85;1.75;;;;;;;39.57;21.45;98793.47;5091476;28;42803;-74
2022/07/29 11:42:47;;;;;;;2.65;2.45;;;;;;;40.02;21.12;98782.09;5074516;28;40827;-73
2022/07/29 11:45:18;;;;;;;2.67;2.47;;;;;;;40.02;20.51;98786.81;5090948;28;40997;-73
2022/07/29 11:47:52;;;;;;;2.50;2.30;;;;;;;40.36;20.37;98790.44;5088348;28;42004;-75
2022/07/29 11:50:30;;;;;;;2.67;2.47;;;;;;;41.00;19.62;98802.31;5090861;28;43954;-73
2022/07/29 11:52:59;;;;;;;2.15;2.05;;;;;;;41.74;19.33;98795.25;5087998;28;42113;-73
2022/07/29 11:55:27;;;;;;;2.35;2.25;;;;;;;42.63;18.60;98796.88;5090911;28;40894;-74
2022/07/29 11:57:58;;;;;;;2.72;2.10;;;;;;;43.36;18.08;98797.97;5091137;28;40678;-74